sensor_id;sensor_type;location;lat;lon;timestamp;temperature;humidity
22081;DHT22;11207;59.512;18.050;2024-01-30T00:02:26;1.50;99.90
22081;DHT22;11207;59.512;18.050;2024-01-30T00:04:52;1.50;99.90
22081;DHT22;11207;59.512;18.050;2024-01-30T00:07:18;1.50;99.90
22081;DHT22;11207;59.512;18.050;2024-01-30T00:09:46;1.50;99.90
22081;DHT22;11207;59.512;18.050;2024-01-30T00:12:13;1.50;99.90
22081;DHT22;11207;59.512;18.050;2024-01-30T00:14:38;1.40;99.90
22081;DHT22;11207;59.512;18.050;2024-01-30T00:17:06;1.40;99.90
22081;DHT22;11207;59.512;18.050;2024-01-30T00:19:32;1.30;99.90
22081;DHT22;11207;59.512;18.050;2024-01-30T00:21:57;1.20;99.90
22081;DHT22;11207;59.512;18.050;2024-01-30T00:24:26;1.20;99.90
22081;DHT22;11207;59.512;18.050;2024-01-30T00:26:52;1.20;99.90
22081;DHT22;11207;59.512;18.050;2024-01-30T00:29:17;1.20;99.90
22081;DHT22;11207;59.512;18.050;2024-01-30T00:31:45;1.20;99.90
22081;DHT22;11207;59.512;18.050;2024-01-30T00:34:11;1.10;99.90
22081;DHT22;11207;59.512;18.050;2024-01-30T00:36:37;1.00;99.90
22081;DHT22;11207;59.512;18.050;2024-01-30T00:39:05;1.00;99.90
22081;DHT22;11207;59.512;18.050;2024-01-30T00:41:34;1.00;99.90
22081;DHT22;11207;59.512;18.050;2024-01-30T00:44:02;1.00;99.90
22081;DHT22;11207;59.512;18.050;2024-01-30T00:46:28;1.00;99.90
22081;DHT22;11207;59.512;18.050;2024-01-30T00:48:56;1.00;99.90
22081;DHT22;11207;59.512;18.050;2024-01-30T00:51:22;1.00;99.90
22081;DHT22;11207;59.512;18.050;2024-01-30T00:53:47;1.10;99.90
22081;DHT22;11207;59.512;18.050;2024-01-30T00:56:13;1.10;99.90
22081;DHT22;11207;59.512;18.050;2024-01-30T00:58:42;1.10;99.90
22081;DHT22;11207;59.512;18.050;2024-01-30T01:01:07;1.10;99.90
22081;DHT22;11207;59.512;18.050;2024-01-30T01:03:33;1.10;99.90
22081;DHT22;11207;59.512;18.050;2024-01-30T01:05:59;1.10;99.90
22081;DHT22;11207;59.512;18.050;2024-01-30T01:08:24;1.00;99.90
22081;DHT22;11207;59.512;18.050;2024-01-30T01:10:50;1.00;99.90
22081;DHT22;11207;59.512;18.050;2024-01-30T01:13:16;0.90;99.90
22081;DHT22;11207;59.512;18.050;2024-01-30T01:15:44;1.00;99.90
22081;DHT22;11207;59.512;18.050;2024-01-30T01:18:10;1.10;99.90
22081;DHT22;11207;59.512;18.050;2024-01-30T01:20:35;1.00;99.90
22081;DHT22;11207;59.512;18.050;2024-01-30T01:23:01;1.00;99.90
22081;DHT22;11207;59.512;18.050;2024-01-30T01:25:26;1.00;99.90
22081;DHT22;11207;59.512;18.050;2024-01-30T01:27:52;1.00;99.90
22081;DHT22;11207;59.512;18.050;2024-01-30T01:30:18;1.00;99.90
22081;DHT22;11207;59.512;18.050;2024-01-30T01:32:50;1.00;99.90
22081;DHT22;11207;59.512;18.050;2024-01-30T01:35:21;1.00;99.90
22081;DHT22;11207;59.512;18.050;2024-01-30T01:37:48;1.00;99.90
22081;DHT22;11207;59.512;18.050;2024-01-30T01:40:23;0.90;99.90
22081;DHT22;11207;59.512;18.050;2024-01-30T01:42:53;0.80;99.90
22081;DHT22;11207;59.512;18.050;2024-01-30T01:45:19;0.90;99.90
22081;DHT22;11207;59.512;18.050;2024-01-30T01:47:48;0.80;99.90
22081;DHT22;11207;59.512;18.050;2024-01-30T01:50:16;0.80;99.90
22081;DHT22;11207;59.512;18.050;2024-01-30T01:52:47;0.80;99.90
22081;DHT22;11207;59.512;18.050;2024-01-30T01:55:14;0.80;99.90
22081;DHT22;11207;59.512;18.050;2024-01-30T01:57:41;0.80;99.90
22081;DHT22;11207;59.512;18.050;2024-01-30T02:00:08;0.80;99.90
22081;DHT22;11207;59.512;18.050;2024-01-30T02:02:36;0.70;99.90
22081;DHT22;11207;59.512;18.050;2024-01-30T02:05:01;0.80;99.90
22081;DHT22;11207;59.512;18.050;2024-01-30T02:07:28;0.80;99.90
22081;DHT22;11207;59.512;18.050;2024-01-30T02:09:54;0.70;99.90
22081;DHT22;11207;59.512;18.050;2024-01-30T02:12:20;0.70;99.90
22081;DHT22;11207;59.512;18.050;2024-01-30T02:14:49;0.70;99.90
22081;DHT22;11207;59.512;18.050;2024-01-30T02:17:16;0.70;99.90
22081;DHT22;11207;59.512;18.050;2024-01-30T02:19:42;0.70;99.90
22081;DHT22;11207;59.512;18.050;2024-01-30T02:22:08;0.70;99.90
22081;DHT22;11207;59.512;18.050;2024-01-30T02:24:34;0.70;99.90
22081;DHT22;11207;59.512;18.050;2024-01-30T02:27:00;0.70;99.90
22081;DHT22;11207;59.512;18.050;2024-01-30T02:29:26;0.70;99.90
22081;DHT22;11207;59.512;18.050;2024-01-30T02:31:51;0.70;99.90
22081;DHT22;11207;59.512;18.050;2024-01-30T02:34:18;0.70;99.90
22081;DHT22;11207;59.512;18.050;2024-01-30T02:36:45;0.70;99.90
22081;DHT22;11207;59.512;18.050;2024-01-30T02:39:10;0.70;99.90
22081;DHT22;11207;59.512;18.050;2024-01-30T02:41:36;0.70;99.90
22081;DHT22;11207;59.512;18.050;2024-01-30T02:44:03;0.70;99.90
22081;DHT22;11207;59.512;18.050;2024-01-30T02:46:29;0.70;99.90
22081;DHT22;11207;59.512;18.050;2024-01-30T02:48:54;0.70;99.90
22081;DHT22;11207;59.512;18.050;2024-01-30T02:51:20;0.70;99.90
22081;DHT22;11207;59.512;18.050;2024-01-30T02:53:45;0.70;99.90
22081;DHT22;11207;59.512;18.050;2024-01-30T02:56:11;0.70;99.90
22081;DHT22;11207;59.512;18.050;2024-01-30T02:58:39;0.70;99.90
22081;DHT22;11207;59.512;18.050;2024-01-30T03:01:05;0.70;99.90
22081;DHT22;11207;59.512;18.050;2024-01-30T03:03:31;0.70;99.90
22081;DHT22;11207;59.512;18.050;2024-01-30T03:05:57;0.70;99.90
22081;DHT22;11207;59.512;18.050;2024-01-30T03:08:22;0.70;99.90
22081;DHT22;11207;59.512;18.050;2024-01-30T03:10:50;0.70;99.90
22081;DHT22;11207;59.512;18.050;2024-01-30T03:13:15;0.70;99.90
22081;DHT22;11207;59.512;18.050;2024-01-30T03:15:41;0.70;99.90
22081;DHT22;11207;59.512;18.050;2024-01-30T03:18:06;0.70;99.90
22081;DHT22;11207;59.512;18.050;2024-01-30T03:20:32;0.70;99.90
22081;DHT22;11207;59.512;18.050;2024-01-30T03:23:00;0.80;99.90
22081;DHT22;11207;59.512;18.050;2024-01-30T03:25:26;0.70;99.90
22081;DHT22;11207;59.512;18.050;2024-01-30T03:27:51;0.70;99.90
22081;DHT22;11207;59.512;18.050;2024-01-30T03:30:17;0.80;99.90
22081;DHT22;11207;59.512;18.050;2024-01-30T03:32:43;0.70;99.90
22081;DHT22;11207;59.512;18.050;2024-01-30T03:35:09;0.70;99.90
22081;DHT22;11207;59.512;18.050;2024-01-30T03:37:35;0.70;99.90
22081;DHT22;11207;59.512;18.050;2024-01-30T03:40:04;0.70;99.90
22081;DHT22;11207;59.512;18.050;2024-01-30T03:42:33;0.70;99.90
22081;DHT22;11207;59.512;18.050;2024-01-30T03:44:59;0.70;99.90
22081;DHT22;11207;59.512;18.050;2024-01-30T03:47:25;0.80;99.90
22081;DHT22;11207;59.512;18.050;2024-01-30T03:49:50;0.80;99.90
22081;DHT22;11207;59.512;18.050;2024-01-30T03:52:16;0.70;99.90
22081;DHT22;11207;59.512;18.050;2024-01-30T03:54:42;0.60;99.90
22081;DHT22;11207;59.512;18.050;2024-01-30T03:57:07;0.70;99.90
22081;DHT22;11207;59.512;18.050;2024-01-30T03:59:33;0.70;99.90
22081;DHT22;11207;59.512;18.050;2024-01-30T04:01:59;0.60;99.90
22081;DHT22;11207;59.512;18.050;2024-01-30T04:04:25;0.60;99.90
22081;DHT22;11207;59.512;18.050;2024-01-30T04:06:51;0.60;99.90
22081;DHT22;11207;59.512;18.050;2024-01-30T04:09:16;0.60;99.90
22081;DHT22;11207;59.512;18.050;2024-01-30T04:11:42;0.60;99.90
22081;DHT22;11207;59.512;18.050;2024-01-30T04:14:08;0.60;99.90
22081;DHT22;11207;59.512;18.050;2024-01-30T04:16:34;0.60;99.90
22081;DHT22;11207;59.512;18.050;2024-01-30T04:19:00;0.70;99.90
22081;DHT22;11207;59.512;18.050;2024-01-30T04:21:25;0.70;99.90
22081;DHT22;11207;59.512;18.050;2024-01-30T04:23:51;0.70;99.90
22081;DHT22;11207;59.512;18.050;2024-01-30T04:26:17;0.60;99.90
22081;DHT22;11207;59.512;18.050;2024-01-30T04:28:44;0.50;99.90
22081;DHT22;11207;59.512;18.050;2024-01-30T04:31:11;0.60;99.90
22081;DHT22;11207;59.512;18.050;2024-01-30T04:33:37;0.60;99.90
22081;DHT22;11207;59.512;18.050;2024-01-30T04:36:08;0.60;99.90
22081;DHT22;11207;59.512;18.050;2024-01-30T04:38:35;0.60;99.90
22081;DHT22;11207;59.512;18.050;2024-01-30T04:41:01;0.60;99.90
22081;DHT22;11207;59.512;18.050;2024-01-30T04:43:26;0.60;99.90
22081;DHT22;11207;59.512;18.050;2024-01-30T04:45:52;0.60;99.90
22081;DHT22;11207;59.512;18.050;2024-01-30T04:48:18;0.60;99.90
22081;DHT22;11207;59.512;18.050;2024-01-30T04:50:44;0.60;99.90
22081;DHT22;11207;59.512;18.050;2024-01-30T04:53:09;0.60;99.90
22081;DHT22;11207;59.512;18.050;2024-01-30T04:55:35;0.50;99.90
22081;DHT22;11207;59.512;18.050;2024-01-30T04:58:01;0.60;99.90
22081;DHT22;11207;59.512;18.050;2024-01-30T05:00:27;0.50;99.90
22081;DHT22;11207;59.512;18.050;2024-01-30T05:02:54;0.50;99.90
22081;DHT22;11207;59.512;18.050;2024-01-30T05:05:20;0.50;99.90
22081;DHT22;11207;59.512;18.050;2024-01-30T05:07:47;0.50;99.90
22081;DHT22;11207;59.512;18.050;2024-01-30T05:10:13;0.50;99.90
22081;DHT22;11207;59.512;18.050;2024-01-30T05:12:39;0.40;99.90
22081;DHT22;11207;59.512;18.050;2024-01-30T05:15:05;0.40;99.90
22081;DHT22;11207;59.512;18.050;2024-01-30T05:17:30;0.50;99.90
22081;DHT22;11207;59.512;18.050;2024-01-30T05:19:56;0.40;99.90
22081;DHT22;11207;59.512;18.050;2024-01-30T05:22:22;0.40;99.90
22081;DHT22;11207;59.512;18.050;2024-01-30T05:24:47;0.50;99.90
22081;DHT22;11207;59.512;18.050;2024-01-30T05:27:13;0.40;99.90
22081;DHT22;11207;59.512;18.050;2024-01-30T05:29:39;0.40;99.90
22081;DHT22;11207;59.512;18.050;2024-01-30T05:32:06;0.40;99.90
22081;DHT22;11207;59.512;18.050;2024-01-30T05:34:32;0.40;99.90
22081;DHT22;11207;59.512;18.050;2024-01-30T05:36:58;0.50;99.90
22081;DHT22;11207;59.512;18.050;2024-01-30T05:39:27;0.50;99.90
22081;DHT22;11207;59.512;18.050;2024-01-30T05:41:52;0.50;99.90
22081;DHT22;11207;59.512;18.050;2024-01-30T05:44:18;0.50;99.90
22081;DHT22;11207;59.512;18.050;2024-01-30T05:46:43;0.50;99.90
22081;DHT22;11207;59.512;18.050;2024-01-30T05:49:09;0.50;99.90
22081;DHT22;11207;59.512;18.050;2024-01-30T05:51:35;0.40;99.90
22081;DHT22;11207;59.512;18.050;2024-01-30T05:54:00;0.50;99.90
22081;DHT22;11207;59.512;18.050;2024-01-30T05:56:29;0.40;99.90
22081;DHT22;11207;59.512;18.050;2024-01-30T05:58:54;0.40;99.90
22081;DHT22;11207;59.512;18.050;2024-01-30T06:01:20;0.40;99.90
22081;DHT22;11207;59.512;18.050;2024-01-30T06:03:46;0.40;99.90
22081;DHT22;11207;59.512;18.050;2024-01-30T06:06:11;0.40;99.90
22081;DHT22;11207;59.512;18.050;2024-01-30T06:08:37;0.40;99.90
22081;DHT22;11207;59.512;18.050;2024-01-30T06:11:03;0.40;99.90
22081;DHT22;11207;59.512;18.050;2024-01-30T06:13:29;0.40;99.90
22081;DHT22;11207;59.512;18.050;2024-01-30T06:15:57;0.40;99.90
22081;DHT22;11207;59.512;18.050;2024-01-30T06:18:29;0.40;99.90
22081;DHT22;11207;59.512;18.050;2024-01-30T06:20:56;0.40;99.90
22081;DHT22;11207;59.512;18.050;2024-01-30T06:23:22;0.50;99.90
22081;DHT22;11207;59.512;18.050;2024-01-30T06:25:47;0.40;99.90
22081;DHT22;11207;59.512;18.050;2024-01-30T06:28:13;0.40;99.90
22081;DHT22;11207;59.512;18.050;2024-01-30T06:30:39;0.40;99.90
22081;DHT22;11207;59.512;18.050;2024-01-30T06:33:04;0.40;99.90
22081;DHT22;11207;59.512;18.050;2024-01-30T06:35:33;0.40;99.90
22081;DHT22;11207;59.512;18.050;2024-01-30T06:38:00;0.20;99.90
22081;DHT22;11207;59.512;18.050;2024-01-30T06:40:26;0.30;99.90
22081;DHT22;11207;59.512;18.050;2024-01-30T06:42:51;0.40;99.90
22081;DHT22;11207;59.512;18.050;2024-01-30T06:45:17;0.40;99.90
22081;DHT22;11207;59.512;18.050;2024-01-30T06:47:43;0.30;99.90
22081;DHT22;11207;59.512;18.050;2024-01-30T06:50:08;0.30;99.90
22081;DHT22;11207;59.512;18.050;2024-01-30T06:52:34;0.30;99.90
22081;DHT22;11207;59.512;18.050;2024-01-30T06:55:00;0.50;99.90
22081;DHT22;11207;59.512;18.050;2024-01-30T06:57:25;0.30;99.90
22081;DHT22;11207;59.512;18.050;2024-01-30T06:59:53;0.30;99.90
22081;DHT22;11207;59.512;18.050;2024-01-30T07:02:19;0.40;99.90
22081;DHT22;11207;59.512;18.050;2024-01-30T07:04:44;0.30;99.90
22081;DHT22;11207;59.512;18.050;2024-01-30T07:07:10;0.30;99.90
22081;DHT22;11207;59.512;18.050;2024-01-30T07:09:38;0.40;99.90
22081;DHT22;11207;59.512;18.050;2024-01-30T07:12:04;0.40;99.90
22081;DHT22;11207;59.512;18.050;2024-01-30T07:14:33;0.40;99.90
22081;DHT22;11207;59.512;18.050;2024-01-30T07:17:02;0.40;99.90
22081;DHT22;11207;59.512;18.050;2024-01-30T07:19:28;0.40;99.90
22081;DHT22;11207;59.512;18.050;2024-01-30T07:21:53;0.40;99.90
22081;DHT22;11207;59.512;18.050;2024-01-30T07:24:19;0.40;99.90
22081;DHT22;11207;59.512;18.050;2024-01-30T07:26:45;0.40;99.90
22081;DHT22;11207;59.512;18.050;2024-01-30T07:29:11;0.50;99.90
22081;DHT22;11207;59.512;18.050;2024-01-30T07:31:37;0.60;99.90
22081;DHT22;11207;59.512;18.050;2024-01-30T07:34:02;0.50;99.90
22081;DHT22;11207;59.512;18.050;2024-01-30T07:36:28;0.50;99.90
22081;DHT22;11207;59.512;18.050;2024-01-30T07:38:54;0.50;99.90
22081;DHT22;11207;59.512;18.050;2024-01-30T07:41:20;0.50;99.90
22081;DHT22;11207;59.512;18.050;2024-01-30T07:43:46;0.50;99.90
22081;DHT22;11207;59.512;18.050;2024-01-30T07:46:15;0.50;99.90
22081;DHT22;11207;59.512;18.050;2024-01-30T07:48:40;0.60;99.90
22081;DHT22;11207;59.512;18.050;2024-01-30T07:51:06;0.60;99.90
22081;DHT22;11207;59.512;18.050;2024-01-30T07:53:32;0.60;99.90
22081;DHT22;11207;59.512;18.050;2024-01-30T07:55:57;0.60;99.90
22081;DHT22;11207;59.512;18.050;2024-01-30T07:58:26;0.60;99.90
22081;DHT22;11207;59.512;18.050;2024-01-30T08:00:55;0.60;99.90
22081;DHT22;11207;59.512;18.050;2024-01-30T08:03:26;0.70;99.90
22081;DHT22;11207;59.512;18.050;2024-01-30T08:05:52;0.70;99.90
22081;DHT22;11207;59.512;18.050;2024-01-30T08:08:46;0.70;99.90
22081;DHT22;11207;59.512;18.050;2024-01-30T08:11:32;0.70;99.90
22081;DHT22;11207;59.512;18.050;2024-01-30T08:13:58;0.70;99.90
22081;DHT22;11207;59.512;18.050;2024-01-30T08:16:27;0.70;99.90
22081;DHT22;11207;59.512;18.050;2024-01-30T08:18:53;0.70;99.90
22081;DHT22;11207;59.512;18.050;2024-01-30T08:21:22;0.70;99.90
22081;DHT22;11207;59.512;18.050;2024-01-30T08:23:47;0.70;99.90
22081;DHT22;11207;59.512;18.050;2024-01-30T08:26:13;0.80;99.90
22081;DHT22;11207;59.512;18.050;2024-01-30T08:28:38;0.80;99.90
22081;DHT22;11207;59.512;18.050;2024-01-30T08:31:05;0.80;99.90
22081;DHT22;11207;59.512;18.050;2024-01-30T08:33:30;0.80;99.90
22081;DHT22;11207;59.512;18.050;2024-01-30T08:35:56;0.80;99.90
22081;DHT22;11207;59.512;18.050;2024-01-30T08:38:22;0.90;99.90
22081;DHT22;11207;59.512;18.050;2024-01-30T08:40:47;0.90;99.90
22081;DHT22;11207;59.512;18.050;2024-01-30T08:43:13;0.90;99.90
22081;DHT22;11207;59.512;18.050;2024-01-30T08:45:39;1.00;99.90
22081;DHT22;11207;59.512;18.050;2024-01-30T08:48:05;1.00;99.90
22081;DHT22;11207;59.512;18.050;2024-01-30T08:50:31;1.00;99.90
22081;DHT22;11207;59.512;18.050;2024-01-30T08:52:56;1.00;99.90
22081;DHT22;11207;59.512;18.050;2024-01-30T08:55:22;1.00;99.90
22081;DHT22;11207;59.512;18.050;2024-01-30T08:57:49;1.00;99.90
22081;DHT22;11207;59.512;18.050;2024-01-30T09:00:15;1.10;99.90
22081;DHT22;11207;59.512;18.050;2024-01-30T09:02:40;1.10;99.90
22081;DHT22;11207;59.512;18.050;2024-01-30T09:05:06;1.10;99.90
22081;DHT22;11207;59.512;18.050;2024-01-30T09:07:33;1.10;99.90
22081;DHT22;11207;59.512;18.050;2024-01-30T09:09:59;1.10;99.90
22081;DHT22;11207;59.512;18.050;2024-01-30T09:12:24;1.10;99.90
22081;DHT22;11207;59.512;18.050;2024-01-30T09:14:50;1.20;99.90
22081;DHT22;11207;59.512;18.050;2024-01-30T09:17:16;1.30;99.90
22081;DHT22;11207;59.512;18.050;2024-01-30T09:19:41;1.20;99.90
22081;DHT22;11207;59.512;18.050;2024-01-30T09:22:07;1.30;99.90
22081;DHT22;11207;59.512;18.050;2024-01-30T09:24:33;1.30;99.90
22081;DHT22;11207;59.512;18.050;2024-01-30T09:26:59;1.30;99.90
22081;DHT22;11207;59.512;18.050;2024-01-30T09:29:25;1.40;99.90
22081;DHT22;11207;59.512;18.050;2024-01-30T09:31:50;1.40;99.90
22081;DHT22;11207;59.512;18.050;2024-01-30T09:34:16;1.40;99.90
22081;DHT22;11207;59.512;18.050;2024-01-30T09:36:42;1.50;99.90
22081;DHT22;11207;59.512;18.050;2024-01-30T09:39:07;1.50;99.90
22081;DHT22;11207;59.512;18.050;2024-01-30T09:41:40;1.50;99.90
22081;DHT22;11207;59.512;18.050;2024-01-30T09:44:11;1.50;99.90
22081;DHT22;11207;59.512;18.050;2024-01-30T09:46:38;1.50;99.90
22081;DHT22;11207;59.512;18.050;2024-01-30T09:49:04;1.50;99.90
22081;DHT22;11207;59.512;18.050;2024-01-30T09:51:32;1.60;99.90
22081;DHT22;11207;59.512;18.050;2024-01-30T09:53:59;1.60;99.90
22081;DHT22;11207;59.512;18.050;2024-01-30T09:56:24;1.70;99.90
22081;DHT22;11207;59.512;18.050;2024-01-30T09:58:50;1.70;99.90
22081;DHT22;11207;59.512;18.050;2024-01-30T10:01:17;1.70;99.90
22081;DHT22;11207;59.512;18.050;2024-01-30T10:03:44;1.70;99.90
22081;DHT22;11207;59.512;18.050;2024-01-30T10:06:11;1.80;99.90
22081;DHT22;11207;59.512;18.050;2024-01-30T10:08:37;1.80;99.90
22081;DHT22;11207;59.512;18.050;2024-01-30T10:11:03;1.80;99.90
22081;DHT22;11207;59.512;18.050;2024-01-30T10:13:29;1.90;99.90
22081;DHT22;11207;59.512;18.050;2024-01-30T10:15:55;1.80;99.90
22081;DHT22;11207;59.512;18.050;2024-01-30T10:18:22;2.00;99.90
22081;DHT22;11207;59.512;18.050;2024-01-30T10:20:49;2.00;99.90
22081;DHT22;11207;59.512;18.050;2024-01-30T10:23:14;2.00;99.90
22081;DHT22;11207;59.512;18.050;2024-01-30T10:25:40;2.10;99.90
22081;DHT22;11207;59.512;18.050;2024-01-30T10:28:07;2.10;99.90
22081;DHT22;11207;59.512;18.050;2024-01-30T10:30:32;2.10;99.90
22081;DHT22;11207;59.512;18.050;2024-01-30T10:32:58;2.10;99.90
22081;DHT22;11207;59.512;18.050;2024-01-30T10:35:24;2.10;99.90
22081;DHT22;11207;59.512;18.050;2024-01-30T10:37:49;2.10;99.90
22081;DHT22;11207;59.512;18.050;2024-01-30T10:40:15;2.10;99.90
22081;DHT22;11207;59.512;18.050;2024-01-30T10:42:45;2.10;99.90
22081;DHT22;11207;59.512;18.050;2024-01-30T10:45:12;2.10;99.90
22081;DHT22;11207;59.512;18.050;2024-01-30T10:47:40;2.20;99.90
22081;DHT22;11207;59.512;18.050;2024-01-30T10:50:10;2.20;99.90
22081;DHT22;11207;59.512;18.050;2024-01-30T10:52:37;2.30;99.90
22081;DHT22;11207;59.512;18.050;2024-01-30T10:55:04;2.30;99.90
22081;DHT22;11207;59.512;18.050;2024-01-30T10:57:34;2.40;99.90
22081;DHT22;11207;59.512;18.050;2024-01-30T11:00:08;2.40;99.90
22081;DHT22;11207;59.512;18.050;2024-01-30T11:02:41;2.50;99.90
22081;DHT22;11207;59.512;18.050;2024-01-30T11:05:08;2.50;99.90
22081;DHT22;11207;59.512;18.050;2024-01-30T11:07:34;2.50;99.90
22081;DHT22;11207;59.512;18.050;2024-01-30T11:10:00;2.50;99.90
22081;DHT22;11207;59.512;18.050;2024-01-30T11:12:27;2.50;99.90
22081;DHT22;11207;59.512;18.050;2024-01-30T11:15:07;2.60;99.90
22081;DHT22;11207;59.512;18.050;2024-01-30T11:20:14;2.60;99.90
22081;DHT22;11207;59.512;18.050;2024-01-30T11:22:48;2.70;99.90
22081;DHT22;11207;59.512;18.050;2024-01-30T11:25:15;2.70;99.90
22081;DHT22;11207;59.512;18.050;2024-01-30T11:27:45;2.70;99.90
22081;DHT22;11207;59.512;18.050;2024-01-30T11:30:20;2.80;99.90
22081;DHT22;11207;59.512;18.050;2024-01-30T11:32:46;2.70;99.90
22081;DHT22;11207;59.512;18.050;2024-01-30T11:35:11;2.70;99.90
22081;DHT22;11207;59.512;18.050;2024-01-30T11:37:37;2.70;99.90
22081;DHT22;11207;59.512;18.050;2024-01-30T11:40:07;2.80;99.90
22081;DHT22;11207;59.512;18.050;2024-01-30T11:42:34;2.80;99.90
22081;DHT22;11207;59.512;18.050;2024-01-30T11:45:02;2.90;99.90
22081;DHT22;11207;59.512;18.050;2024-01-30T11:47:28;2.90;99.90
22081;DHT22;11207;59.512;18.050;2024-01-30T11:49:54;2.90;99.90
22081;DHT22;11207;59.512;18.050;2024-01-30T11:52:20;2.90;99.90
22081;DHT22;11207;59.512;18.050;2024-01-30T11:54:46;2.90;99.90
22081;DHT22;11207;59.512;18.050;2024-01-30T11:57:11;3.00;99.90
22081;DHT22;11207;59.512;18.050;2024-01-30T11:59:37;3.00;99.90
22081;DHT22;11207;59.512;18.050;2024-01-30T12:02:03;2.90;99.90
22081;DHT22;11207;59.512;18.050;2024-01-30T12:04:29;3.00;99.90
22081;DHT22;11207;59.512;18.050;2024-01-30T12:06:56;3.00;99.90
22081;DHT22;11207;59.512;18.050;2024-01-30T12:09:32;3.00;99.90
22081;DHT22;11207;59.512;18.050;2024-01-30T12:12:07;3.00;99.90
22081;DHT22;11207;59.512;18.050;2024-01-30T12:14:38;3.10;99.90
22081;DHT22;11207;59.512;18.050;2024-01-30T12:17:04;3.10;99.90
22081;DHT22;11207;59.512;18.050;2024-01-30T12:19:30;3.10;99.90
22081;DHT22;11207;59.512;18.050;2024-01-30T12:21:59;3.10;99.90
22081;DHT22;11207;59.512;18.050;2024-01-30T12:24:26;3.20;99.90
22081;DHT22;11207;59.512;18.050;2024-01-30T12:26:57;3.20;99.90
22081;DHT22;11207;59.512;18.050;2024-01-30T12:29:25;3.20;99.90
22081;DHT22;11207;59.512;18.050;2024-01-30T12:31:53;3.20;99.90
22081;DHT22;11207;59.512;18.050;2024-01-30T12:34:20;3.30;99.90
22081;DHT22;11207;59.512;18.050;2024-01-30T12:36:47;3.30;99.90
22081;DHT22;11207;59.512;18.050;2024-01-30T12:39:15;3.20;99.90
22081;DHT22;11207;59.512;18.050;2024-01-30T12:41:41;3.20;99.90
22081;DHT22;11207;59.512;18.050;2024-01-30T12:44:07;3.20;99.90
22081;DHT22;11207;59.512;18.050;2024-01-30T12:46:34;3.30;99.90
22081;DHT22;11207;59.512;18.050;2024-01-30T12:49:00;3.30;99.90
22081;DHT22;11207;59.512;18.050;2024-01-30T12:51:26;3.30;99.90
22081;DHT22;11207;59.512;18.050;2024-01-30T12:53:52;3.40;99.90
22081;DHT22;11207;59.512;18.050;2024-01-30T12:56:20;3.40;99.90
22081;DHT22;11207;59.512;18.050;2024-01-30T12:58:45;3.40;99.90
22081;DHT22;11207;59.512;18.050;2024-01-30T13:01:11;3.50;99.90
22081;DHT22;11207;59.512;18.050;2024-01-30T13:03:37;3.50;99.90
22081;DHT22;11207;59.512;18.050;2024-01-30T13:06:03;3.50;99.90
22081;DHT22;11207;59.512;18.050;2024-01-30T13:08:29;3.50;99.90
22081;DHT22;11207;59.512;18.050;2024-01-30T13:10:55;3.50;99.90
22081;DHT22;11207;59.512;18.050;2024-01-30T13:13:20;3.50;99.90
22081;DHT22;11207;59.512;18.050;2024-01-30T13:15:46;3.50;99.90
22081;DHT22;11207;59.512;18.050;2024-01-30T13:18:12;3.50;99.90
22081;DHT22;11207;59.512;18.050;2024-01-30T13:20:38;3.50;99.90
22081;DHT22;11207;59.512;18.050;2024-01-30T13:23:03;3.40;99.90
22081;DHT22;11207;59.512;18.050;2024-01-30T13:25:30;3.40;99.90
22081;DHT22;11207;59.512;18.050;2024-01-30T13:27:55;3.40;99.90
22081;DHT22;11207;59.512;18.050;2024-01-30T13:30:21;3.50;99.90
22081;DHT22;11207;59.512;18.050;2024-01-30T13:32:47;3.50;99.90
22081;DHT22;11207;59.512;18.050;2024-01-30T13:35:13;3.40;99.90
22081;DHT22;11207;59.512;18.050;2024-01-30T13:37:38;3.40;99.90
22081;DHT22;11207;59.512;18.050;2024-01-30T13:40:08;3.30;99.90
22081;DHT22;11207;59.512;18.050;2024-01-30T13:42:36;3.40;99.90
22081;DHT22;11207;59.512;18.050;2024-01-30T13:45:02;3.30;99.90
22081;DHT22;11207;59.512;18.050;2024-01-30T13:47:28;3.40;99.90
22081;DHT22;11207;59.512;18.050;2024-01-30T13:49:54;3.40;99.90
22081;DHT22;11207;59.512;18.050;2024-01-30T13:52:19;3.40;99.90
22081;DHT22;11207;59.512;18.050;2024-01-30T13:54:45;3.50;99.90
22081;DHT22;11207;59.512;18.050;2024-01-30T13:57:11;3.40;99.90
22081;DHT22;11207;59.512;18.050;2024-01-30T13:59:38;3.30;99.90
22081;DHT22;11207;59.512;18.050;2024-01-30T14:02:03;3.30;99.90
22081;DHT22;11207;59.512;18.050;2024-01-30T14:04:29;3.30;99.90
22081;DHT22;11207;59.512;18.050;2024-01-30T14:06:55;3.30;99.90
22081;DHT22;11207;59.512;18.050;2024-01-30T14:09:21;3.30;99.90
22081;DHT22;11207;59.512;18.050;2024-01-30T14:11:46;3.30;99.90
22081;DHT22;11207;59.512;18.050;2024-01-30T14:14:12;3.30;99.90
22081;DHT22;11207;59.512;18.050;2024-01-30T14:16:38;3.30;99.90
22081;DHT22;11207;59.512;18.050;2024-01-30T14:19:03;3.30;99.90
22081;DHT22;11207;59.512;18.050;2024-01-30T14:21:29;3.20;99.90
22081;DHT22;11207;59.512;18.050;2024-01-30T14:23:55;3.30;99.90
22081;DHT22;11207;59.512;18.050;2024-01-30T14:26:22;3.50;99.90
22081;DHT22;11207;59.512;18.050;2024-01-30T14:28:48;3.40;99.90
22081;DHT22;11207;59.512;18.050;2024-01-30T14:31:13;3.30;99.90
22081;DHT22;11207;59.512;18.050;2024-01-30T14:33:39;3.40;99.90
22081;DHT22;11207;59.512;18.050;2024-01-30T14:36:05;3.20;99.90
22081;DHT22;11207;59.512;18.050;2024-01-30T14:38:34;3.30;99.90
22081;DHT22;11207;59.512;18.050;2024-01-30T14:41:00;3.20;99.90
22081;DHT22;11207;59.512;18.050;2024-01-30T14:43:26;3.20;99.90
22081;DHT22;11207;59.512;18.050;2024-01-30T14:45:51;3.20;99.90
22081;DHT22;11207;59.512;18.050;2024-01-30T14:48:17;3.20;99.90
22081;DHT22;11207;59.512;18.050;2024-01-30T14:50:43;3.20;99.90
22081;DHT22;11207;59.512;18.050;2024-01-30T14:53:12;3.20;99.90
22081;DHT22;11207;59.512;18.050;2024-01-30T14:55:37;3.10;99.90
22081;DHT22;11207;59.512;18.050;2024-01-30T14:58:03;3.20;99.90
22081;DHT22;11207;59.512;18.050;2024-01-30T15:00:29;3.10;99.90
22081;DHT22;11207;59.512;18.050;2024-01-30T15:02:58;3.00;99.90
22081;DHT22;11207;59.512;18.050;2024-01-30T15:05:25;3.10;99.90
22081;DHT22;11207;59.512;18.050;2024-01-30T15:07:52;3.10;99.90
22081;DHT22;11207;59.512;18.050;2024-01-30T15:10:17;3.20;99.90
22081;DHT22;11207;59.512;18.050;2024-01-30T15:12:44;3.20;99.90
22081;DHT22;11207;59.512;18.050;2024-01-30T15:15:10;3.20;99.90
22081;DHT22;11207;59.512;18.050;2024-01-30T15:17:35;3.10;99.90
22081;DHT22;11207;59.512;18.050;2024-01-30T15:20:01;3.10;99.90
22081;DHT22;11207;59.512;18.050;2024-01-30T15:22:28;3.10;99.90
22081;DHT22;11207;59.512;18.050;2024-01-30T15:24:57;3.10;99.90
22081;DHT22;11207;59.512;18.050;2024-01-30T15:27:26;3.10;99.90
22081;DHT22;11207;59.512;18.050;2024-01-30T15:29:51;3.10;99.90